sensor_id;sensor_type;location;lat;lon;timestamp;P1;durP1;ratioP1;P2;durP2;ratioP2
3050;SDS011;1535;51.098;6.414;2022-08-01T00:00:29;6.70;;;6.20;;
3050;SDS011;1535;51.098;6.414;2022-08-01T00:02:57;6.37;;;5.73;;
3050;SDS011;1535;51.098;6.414;2022-08-01T00:05:23;5.90;;;5.50;;
3050;SDS011;1535;51.098;6.414;2022-08-01T00:07:50;5.60;;;5.10;;
3050;SDS011;1535;51.098;6.414;2022-08-01T00:10:17;6.33;;;5.80;;
3050;SDS011;1535;51.098;6.414;2022-08-01T00:12:45;5.90;;;5.50;;
3050;SDS011;1535;51.098;6.414;2022-08-01T00:15:13;6.77;;;6.07;;
3050;SDS011;1535;51.098;6.414;2022-08-01T00:17:42;6.60;;;5.43;;
3050;SDS011;1535;51.098;6.414;2022-08-01T00:20:10;6.50;;;6.10;;
3050;SDS011;1535;51.098;6.414;2022-08-01T00:22:39;6.40;;;5.93;;
3050;SDS011;1535;51.098;6.414;2022-08-01T00:25:07;7.63;;;5.93;;
3050;SDS011;1535;51.098;6.414;2022-08-01T00:27:34;6.20;;;5.60;;
3050;SDS011;1535;51.098;6.414;2022-08-01T00:30:04;6.53;;;5.97;;
3050;SDS011;1535;51.098;6.414;2022-08-01T00:32:32;7.63;;;4.90;;
3050;SDS011;1535;51.098;6.414;2022-08-01T00:34:58;8.80;;;5.50;;
3050;SDS011;1535;51.098;6.414;2022-08-01T00:37:25;6.10;;;5.33;;
3050;SDS011;1535;51.098;6.414;2022-08-01T00:39:52;6.10;;;5.70;;
3050;SDS011;1535;51.098;6.414;2022-08-01T00:42:34;5.90;;;5.40;;
3050;SDS011;1535;51.098;6.414;2022-08-01T00:45:01;9.50;;;5.17;;
3050;SDS011;1535;51.098;6.414;2022-08-01T00:47:31;6.93;;;5.47;;
3050;SDS011;1535;51.098;6.414;2022-08-01T00:49:58;6.47;;;5.37;;
3050;SDS011;1535;51.098;6.414;2022-08-01T00:52:25;6.10;;;5.40;;
3050;SDS011;1535;51.098;6.414;2022-08-01T00:54:53;5.93;;;5.40;;
3050;SDS011;1535;51.098;6.414;2022-08-01T00:57:20;8.50;;;5.70;;
3050;SDS011;1535;51.098;6.414;2022-08-01T00:59:47;8.00;;;6.07;;
3050;SDS011;1535;51.098;6.414;2022-08-01T01:02:16;7.13;;;5.30;;
3050;SDS011;1535;51.098;6.414;2022-08-01T01:04:43;6.00;;;5.03;;
3050;SDS011;1535;51.098;6.414;2022-08-01T01:07:21;6.93;;;6.10;;
3050;SDS011;1535;51.098;6.414;2022-08-01T01:09:56;6.93;;;6.33;;
3050;SDS011;1535;51.098;6.414;2022-08-01T01:12:28;7.30;;;5.20;;
3050;SDS011;1535;51.098;6.414;2022-08-01T01:15:01;5.90;;;5.40;;
3050;SDS011;1535;51.098;6.414;2022-08-01T01:17:35;9.90;;;5.60;;
3050;SDS011;1535;51.098;6.414;2022-08-01T01:20:05;5.73;;;5.33;;
3050;SDS011;1535;51.098;6.414;2022-08-01T01:22:45;5.77;;;5.20;;
3050;SDS011;1535;51.098;6.414;2022-08-01T01:25:24;6.23;;;5.83;;
3050;SDS011;1535;51.098;6.414;2022-08-01T01:28:02;6.20;;;5.67;;
3050;SDS011;1535;51.098;6.414;2022-08-01T01:30:38;5.77;;;5.30;;
3050;SDS011;1535;51.098;6.414;2022-08-01T01:33:10;5.50;;;5.00;;
3050;SDS011;1535;51.098;6.414;2022-08-01T01:35:41;6.07;;;5.60;;
3050;SDS011;1535;51.098;6.414;2022-08-01T01:38:13;6.40;;;5.90;;
3050;SDS011;1535;51.098;6.414;2022-08-01T01:40:44;6.30;;;5.80;;
3050;SDS011;1535;51.098;6.414;2022-08-01T01:43:14;6.97;;;5.90;;
3050;SDS011;1535;51.098;6.414;2022-08-01T01:45:46;7.73;;;6.30;;
3050;SDS011;1535;51.098;6.414;2022-08-01T01:48:14;7.23;;;6.30;;
3050;SDS011;1535;51.098;6.414;2022-08-01T01:50:45;8.37;;;6.47;;
3050;SDS011;1535;51.098;6.414;2022-08-01T01:53:15;6.57;;;5.93;;
3050;SDS011;1535;51.098;6.414;2022-08-01T01:55:45;6.60;;;6.10;;
3050;SDS011;1535;51.098;6.414;2022-08-01T01:58:16;7.83;;;6.47;;
3050;SDS011;1535;51.098;6.414;2022-08-01T02:00:48;6.73;;;6.13;;
3050;SDS011;1535;51.098;6.414;2022-08-01T02:03:17;6.87;;;6.20;;
3050;SDS011;1535;51.098;6.414;2022-08-01T02:05:46;9.97;;;5.83;;
3050;SDS011;1535;51.098;6.414;2022-08-01T02:08:14;7.87;;;6.70;;
3050;SDS011;1535;51.098;6.414;2022-08-01T02:10:42;7.03;;;6.40;;
3050;SDS011;1535;51.098;6.414;2022-08-01T02:13:33;6.60;;;6.20;;
3050;SDS011;1535;51.098;6.414;2022-08-01T02:16:03;8.10;;;6.97;;
3050;SDS011;1535;51.098;6.414;2022-08-01T02:18:31;6.67;;;6.20;;
3050;SDS011;1535;51.098;6.414;2022-08-01T02:20:59;7.93;;;5.73;;
3050;SDS011;1535;51.098;6.414;2022-08-01T02:23:31;6.53;;;5.90;;
3050;SDS011;1535;51.098;6.414;2022-08-01T02:26:00;9.33;;;5.97;;
3050;SDS011;1535;51.098;6.414;2022-08-01T02:28:35;6.33;;;5.93;;
3050;SDS011;1535;51.098;6.414;2022-08-01T02:31:06;7.40;;;6.00;;
3050;SDS011;1535;51.098;6.414;2022-08-01T02:33:37;8.77;;;6.27;;
3050;SDS011;1535;51.098;6.414;2022-08-01T02:36:07;8.83;;;6.40;;
3050;SDS011;1535;51.098;6.414;2022-08-01T02:38:35;7.50;;;6.20;;
3050;SDS011;1535;51.098;6.414;2022-08-01T02:41:07;6.80;;;6.20;;
3050;SDS011;1535;51.098;6.414;2022-08-01T02:43:38;7.57;;;6.10;;
3050;SDS011;1535;51.098;6.414;2022-08-01T02:46:11;7.03;;;6.33;;
3050;SDS011;1535;51.098;6.414;2022-08-01T02:48:42;8.13;;;7.00;;
3050;SDS011;1535;51.098;6.414;2022-08-01T02:51:09;7.27;;;6.40;;
3050;SDS011;1535;51.098;6.414;2022-08-01T02:53:38;7.13;;;6.30;;
3050;SDS011;1535;51.098;6.414;2022-08-01T02:56:07;8.10;;;7.30;;
3050;SDS011;1535;51.098;6.414;2022-08-01T02:58:35;8.53;;;7.27;;
3050;SDS011;1535;51.098;6.414;2022-08-01T03:01:05;11.17;;;6.93;;
3050;SDS011;1535;51.098;6.414;2022-08-01T03:03:37;11.70;;;6.93;;
3050;SDS011;1535;51.098;6.414;2022-08-01T03:06:04;9.20;;;8.30;;
3050;SDS011;1535;51.098;6.414;2022-08-01T03:08:32;9.77;;;8.20;;
3050;SDS011;1535;51.098;6.414;2022-08-01T03:11:03;11.87;;;10.77;;
3050;SDS011;1535;51.098;6.414;2022-08-01T03:13:32;10.80;;;9.83;;
3050;SDS011;1535;51.098;6.414;2022-08-01T03:15:59;12.37;;;10.40;;
3050;SDS011;1535;51.098;6.414;2022-08-01T03:18:29;12.23;;;11.03;;
3050;SDS011;1535;51.098;6.414;2022-08-01T03:20:58;10.50;;;9.70;;
3050;SDS011;1535;51.098;6.414;2022-08-01T03:23:27;12.77;;;10.10;;
3050;SDS011;1535;51.098;6.414;2022-08-01T03:25:58;11.00;;;10.00;;
3050;SDS011;1535;51.098;6.414;2022-08-01T03:28:26;11.23;;;10.33;;
3050;SDS011;1535;51.098;6.414;2022-08-01T03:30:55;11.53;;;9.90;;
3050;SDS011;1535;51.098;6.414;2022-08-01T03:33:24;10.83;;;9.83;;
3050;SDS011;1535;51.098;6.414;2022-08-01T03:35:54;10.20;;;9.13;;
3050;SDS011;1535;51.098;6.414;2022-08-01T03:38:23;11.80;;;9.33;;
3050;SDS011;1535;51.098;6.414;2022-08-01T03:40:53;12.20;;;9.50;;
3050;SDS011;1535;51.098;6.414;2022-08-01T03:43:25;19.30;;;10.30;;
3050;SDS011;1535;51.098;6.414;2022-08-01T03:45:58;12.10;;;9.47;;
3050;SDS011;1535;51.098;6.414;2022-08-01T03:48:29;12.50;;;9.10;;
3050;SDS011;1535;51.098;6.414;2022-08-01T03:51:02;13.70;;;9.07;;
3050;SDS011;1535;51.098;6.414;2022-08-01T03:53:34;17.33;;;9.57;;
3050;SDS011;1535;51.098;6.414;2022-08-01T03:56:03;17.00;;;9.80;;
3050;SDS011;1535;51.098;6.414;2022-08-01T03:58:33;10.53;;;9.50;;
3050;SDS011;1535;51.098;6.414;2022-08-01T04:01:03;10.07;;;9.10;;
3050;SDS011;1535;51.098;6.414;2022-08-01T04:03:32;11.17;;;9.97;;
3050;SDS011;1535;51.098;6.414;2022-08-01T04:05:59;12.43;;;10.30;;
3050;SDS011;1535;51.098;6.414;2022-08-01T04:08:34;13.53;;;10.70;;
3050;SDS011;1535;51.098;6.414;2022-08-01T04:11:01;11.23;;;9.77;;
3050;SDS011;1535;51.098;6.414;2022-08-01T04:13:28;11.20;;;10.00;;
3050;SDS011;1535;51.098;6.414;2022-08-01T04:15:55;13.43;;;10.30;;
3050;SDS011;1535;51.098;6.414;2022-08-01T04:18:23;11.37;;;10.30;;
3050;SDS011;1535;51.098;6.414;2022-08-01T04:20:49;11.77;;;10.60;;
3050;SDS011;1535;51.098;6.414;2022-08-01T04:23:18;14.23;;;10.63;;
3050;SDS011;1535;51.098;6.414;2022-08-01T04:25:50;14.77;;;10.77;;
3050;SDS011;1535;51.098;6.414;2022-08-01T04:28:17;19.47;;;11.60;;
3050;SDS011;1535;51.098;6.414;2022-08-01T04:30:45;12.63;;;11.20;;
3050;SDS011;1535;51.098;6.414;2022-08-01T04:33:16;13.20;;;11.70;;
3050;SDS011;1535;51.098;6.414;2022-08-01T04:35:44;12.63;;;10.90;;
3050;SDS011;1535;51.098;6.414;2022-08-01T04:38:13;12.60;;;11.30;;
3050;SDS011;1535;51.098;6.414;2022-08-01T04:40:45;13.43;;;11.97;;
3050;SDS011;1535;51.098;6.414;2022-08-01T04:43:12;13.63;;;11.57;;
3050;SDS011;1535;51.098;6.414;2022-08-01T04:45:40;20.73;;;13.60;;
3050;SDS011;1535;51.098;6.414;2022-08-01T04:48:08;17.57;;;13.10;;
3050;SDS011;1535;51.098;6.414;2022-08-01T04:50:36;17.80;;;12.40;;
3050;SDS011;1535;51.098;6.414;2022-08-01T04:53:03;18.60;;;13.07;;
3050;SDS011;1535;51.098;6.414;2022-08-01T04:55:30;16.23;;;14.53;;
3050;SDS011;1535;51.098;6.414;2022-08-01T04:57:58;17.33;;;13.20;;
3050;SDS011;1535;51.098;6.414;2022-08-01T05:00:25;14.33;;;12.67;;
3050;SDS011;1535;51.098;6.414;2022-08-01T05:02:53;17.70;;;13.73;;
3050;SDS011;1535;51.098;6.414;2022-08-01T05:05:21;21.53;;;12.83;;
3050;SDS011;1535;51.098;6.414;2022-08-01T05:07:50;17.73;;;13.40;;
3050;SDS011;1535;51.098;6.414;2022-08-01T05:10:18;15.60;;;12.90;;
3050;SDS011;1535;51.098;6.414;2022-08-01T05:12:44;14.37;;;13.00;;
3050;SDS011;1535;51.098;6.414;2022-08-01T05:15:13;13.20;;;11.90;;
3050;SDS011;1535;51.098;6.414;2022-08-01T05:17:41;13.50;;;12.03;;
3050;SDS011;1535;51.098;6.414;2022-08-01T05:20:09;15.27;;;12.93;;
3050;SDS011;1535;51.098;6.414;2022-08-01T05:22:37;19.90;;;13.17;;
3050;SDS011;1535;51.098;6.414;2022-08-01T05:25:04;15.93;;;14.27;;
3050;SDS011;1535;51.098;6.414;2022-08-01T05:27:35;19.83;;;13.13;;
3050;SDS011;1535;51.098;6.414;2022-08-01T05:30:09;18.17;;;14.27;;
3050;SDS011;1535;51.098;6.414;2022-08-01T05:32:37;17.27;;;14.33;;
3050;SDS011;1535;51.098;6.414;2022-08-01T05:35:06;21.60;;;13.33;;
3050;SDS011;1535;51.098;6.414;2022-08-01T05:37:33;22.53;;;16.00;;
3050;SDS011;1535;51.098;6.414;2022-08-01T05:40:03;21.33;;;15.27;;
3050;SDS011;1535;51.098;6.414;2022-08-01T05:42:31;20.23;;;15.50;;
3050;SDS011;1535;51.098;6.414;2022-08-01T05:44:57;18.00;;;16.00;;
3050;SDS011;1535;51.098;6.414;2022-08-01T05:47:25;20.30;;;15.90;;
3050;SDS011;1535;51.098;6.414;2022-08-01T05:49:53;25.80;;;17.13;;
3050;SDS011;1535;51.098;6.414;2022-08-01T05:52:20;17.87;;;15.50;;
3050;SDS011;1535;51.098;6.414;2022-08-01T05:54:47;24.50;;;17.03;;
3050;SDS011;1535;51.098;6.414;2022-08-01T05:57:14;17.97;;;16.10;;
3050;SDS011;1535;51.098;6.414;2022-08-01T05:59:41;20.00;;;17.67;;
3050;SDS011;1535;51.098;6.414;2022-08-01T06:02:08;19.43;;;17.00;;
3050;SDS011;1535;51.098;6.414;2022-08-01T06:04:35;19.13;;;17.20;;
3050;SDS011;1535;51.098;6.414;2022-08-01T06:07:03;18.97;;;17.20;;
3050;SDS011;1535;51.098;6.414;2022-08-01T06:09:30;21.33;;;19.20;;
3050;SDS011;1535;51.098;6.414;2022-08-01T06:11:57;20.27;;;18.27;;
3050;SDS011;1535;51.098;6.414;2022-08-01T06:14:24;21.27;;;19.07;;
3050;SDS011;1535;51.098;6.414;2022-08-01T06:16:51;21.50;;;19.30;;
3050;SDS011;1535;51.098;6.414;2022-08-01T06:19:18;22.03;;;18.80;;
3050;SDS011;1535;51.098;6.414;2022-08-01T06:21:44;20.83;;;18.93;;
3050;SDS011;1535;51.098;6.414;2022-08-01T06:24:13;23.57;;;19.67;;
3050;SDS011;1535;51.098;6.414;2022-08-01T06:26:40;21.83;;;19.57;;
3050;SDS011;1535;51.098;6.414;2022-08-01T06:29:07;22.70;;;20.30;;
3050;SDS011;1535;51.098;6.414;2022-08-01T06:31:34;23.70;;;21.60;;
3050;SDS011;1535;51.098;6.414;2022-08-01T06:34:01;23.70;;;21.30;;
3050;SDS011;1535;51.098;6.414;2022-08-01T06:36:28;24.87;;;22.27;;
3050;SDS011;1535;51.098;6.414;2022-08-01T06:38:56;25.50;;;20.93;;
3050;SDS011;1535;51.098;6.414;2022-08-01T06:41:25;24.37;;;21.93;;
3050;SDS011;1535;51.098;6.414;2022-08-01T06:43:52;23.47;;;20.97;;
3050;SDS011;1535;51.098;6.414;2022-08-01T06:46:18;23.23;;;20.83;;
3050;SDS011;1535;51.098;6.414;2022-08-01T06:48:45;23.87;;;21.77;;
3050;SDS011;1535;51.098;6.414;2022-08-01T06:51:12;24.67;;;21.77;;
3050;SDS011;1535;51.098;6.414;2022-08-01T06:53:42;23.90;;;21.40;;
3050;SDS011;1535;51.098;6.414;2022-08-01T06:56:09;24.70;;;22.20;;
3050;SDS011;1535;51.098;6.414;2022-08-01T06:58:37;23.73;;;21.37;;
3050;SDS011;1535;51.098;6.414;2022-08-01T07:01:04;24.03;;;21.63;;
3050;SDS011;1535;51.098;6.414;2022-08-01T07:03:32;25.03;;;22.60;;
3050;SDS011;1535;51.098;6.414;2022-08-01T07:05:59;23.87;;;21.77;;
3050;SDS011;1535;51.098;6.414;2022-08-01T07:08:26;26.50;;;20.73;;
3050;SDS011;1535;51.098;6.414;2022-08-01T07:10:53;26.70;;;24.30;;
3050;SDS011;1535;51.098;6.414;2022-08-01T07:13:20;24.70;;;22.33;;
3050;SDS011;1535;51.098;6.414;2022-08-01T07:15:51;21.77;;;19.97;;
3050;SDS011;1535;51.098;6.414;2022-08-01T07:18:18;22.20;;;20.30;;
3050;SDS011;1535;51.098;6.414;2022-08-01T07:20:45;22.43;;;20.30;;
3050;SDS011;1535;51.098;6.414;2022-08-01T07:23:12;22.20;;;19.90;;
3050;SDS011;1535;51.098;6.414;2022-08-01T07:25:40;22.07;;;20.07;;
3050;SDS011;1535;51.098;6.414;2022-08-01T07:28:07;21.17;;;19.30;;
3050;SDS011;1535;51.098;6.414;2022-08-01T07:30:34;21.80;;;19.90;;
3050;SDS011;1535;51.098;6.414;2022-08-01T07:33:02;22.33;;;20.47;;
3050;SDS011;1535;51.098;6.414;2022-08-01T07:35:29;21.77;;;20.10;;
3050;SDS011;1535;51.098;6.414;2022-08-01T07:37:56;20.67;;;18.80;;
3050;SDS011;1535;51.098;6.414;2022-08-01T07:40:23;21.03;;;18.90;;
3050;SDS011;1535;51.098;6.414;2022-08-01T07:42:49;19.80;;;18.20;;
3050;SDS011;1535;51.098;6.414;2022-08-01T07:45:16;18.40;;;17.00;;
3050;SDS011;1535;51.098;6.414;2022-08-01T07:47:43;20.17;;;18.70;;
3050;SDS011;1535;51.098;6.414;2022-08-01T07:50:13;19.57;;;18.00;;
3050;SDS011;1535;51.098;6.414;2022-08-01T07:52:39;19.17;;;17.67;;
3050;SDS011;1535;51.098;6.414;2022-08-01T07:55:07;20.27;;;18.57;;
3050;SDS011;1535;51.098;6.414;2022-08-01T07:57:34;19.27;;;17.87;;
3050;SDS011;1535;51.098;6.414;2022-08-01T08:00:02;19.77;;;18.33;;
3050;SDS011;1535;51.098;6.414;2022-08-01T08:02:31;20.97;;;19.37;;
3050;SDS011;1535;51.098;6.414;2022-08-01T08:04:58;21.67;;;20.17;;
3050;SDS011;1535;51.098;6.414;2022-08-01T08:07:27;21.13;;;19.53;;
3050;SDS011;1535;51.098;6.414;2022-08-01T08:09:53;21.67;;;19.93;;
3050;SDS011;1535;51.098;6.414;2022-08-01T08:12:20;20.60;;;18.80;;
3050;SDS011;1535;51.098;6.414;2022-08-01T08:14:47;22.20;;;20.60;;
3050;SDS011;1535;51.098;6.414;2022-08-01T08:17:14;20.83;;;19.33;;
3050;SDS011;1535;51.098;6.414;2022-08-01T08:19:41;21.53;;;19.67;;
3050;SDS011;1535;51.098;6.414;2022-08-01T08:22:09;20.23;;;18.87;;
3050;SDS011;1535;51.098;6.414;2022-08-01T08:24:37;21.23;;;19.70;;
3050;SDS011;1535;51.098;6.414;2022-08-01T08:27:04;19.20;;;17.70;;
3050;SDS011;1535;51.098;6.414;2022-08-01T08:29:32;20.03;;;18.67;;
3050;SDS011;1535;51.098;6.414;2022-08-01T08:32:00;20.70;;;19.10;;
3050;SDS011;1535;51.098;6.414;2022-08-01T08:34:28;21.60;;;20.07;;
3050;SDS011;1535;51.098;6.414;2022-08-01T08:36:56;21.27;;;19.60;;
3050;SDS011;1535;51.098;6.414;2022-08-01T08:39:24;20.40;;;18.80;;
3050;SDS011;1535;51.098;6.414;2022-08-01T08:41:52;21.23;;;19.53;;
3050;SDS011;1535;51.098;6.414;2022-08-01T08:44:19;20.37;;;18.87;;
3050;SDS011;1535;51.098;6.414;2022-08-01T08:46:46;21.43;;;19.83;;
3050;SDS011;1535;51.098;6.414;2022-08-01T08:49:18;22.10;;;20.60;;
3050;SDS011;1535;51.098;6.414;2022-08-01T08:51:48;21.73;;;19.93;;
3050;SDS011;1535;51.098;6.414;2022-08-01T08:54:16;21.73;;;20.23;;
3050;SDS011;1535;51.098;6.414;2022-08-01T08:56:45;20.87;;;19.57;;
3050;SDS011;1535;51.098;6.414;2022-08-01T08:59:14;21.10;;;19.80;;
3050;SDS011;1535;51.098;6.414;2022-08-01T09:01:41;21.90;;;20.00;;
3050;SDS011;1535;51.098;6.414;2022-08-01T09:04:08;21.07;;;19.47;;
3050;SDS011;1535;51.098;6.414;2022-08-01T09:06:39;20.87;;;19.03;;
3050;SDS011;1535;51.098;6.414;2022-08-01T09:09:06;21.63;;;20.13;;
3050;SDS011;1535;51.098;6.414;2022-08-01T09:11:34;21.80;;;20.10;;
3050;SDS011;1535;51.098;6.414;2022-08-01T09:14:03;22.67;;;21.07;;
3050;SDS011;1535;51.098;6.414;2022-08-01T09:16:34;21.53;;;20.00;;
3050;SDS011;1535;51.098;6.414;2022-08-01T09:19:09;23.20;;;21.50;;
3050;SDS011;1535;51.098;6.414;2022-08-01T09:21:39;22.87;;;21.40;;
3050;SDS011;1535;51.098;6.414;2022-08-01T09:24:20;23.57;;;21.67;;
3050;SDS011;1535;51.098;6.414;2022-08-01T09:26:46;22.93;;;21.17;;
3050;SDS011;1535;51.098;6.414;2022-08-01T09:29:18;22.87;;;21.30;;
3050;SDS011;1535;51.098;6.414;2022-08-01T09:31:48;22.37;;;20.87;;
3050;SDS011;1535;51.098;6.414;2022-08-01T09:34:15;23.83;;;22.13;;
3050;SDS011;1535;51.098;6.414;2022-08-01T09:36:50;22.87;;;21.37;;
3050;SDS011;1535;51.098;6.414;2022-08-01T09:39:19;22.73;;;21.17;;
3050;SDS011;1535;51.098;6.414;2022-08-01T09:41:47;23.77;;;21.80;;
3050;SDS011;1535;51.098;6.414;2022-08-01T09:44:14;21.87;;;20.10;;
3050;SDS011;1535;51.098;6.414;2022-08-01T09:46:49;21.97;;;20.47;;
3050;SDS011;1535;51.098;6.414;2022-08-01T09:49:28;22.43;;;20.83;;
3050;SDS011;1535;51.098;6.414;2022-08-01T09:51:56;21.97;;;19.77;;
3050;SDS011;1535;51.098;6.414;2022-08-01T09:54:28;21.93;;;20.50;;
3050;SDS011;1535;51.098;6.414;2022-08-01T09:57:06;19.57;;;18.40;;
3050;SDS011;1535;51.098;6.414;2022-08-01T09:59:39;22.40;;;20.87;;
3050;SDS011;1535;51.098;6.414;2022-08-01T10:02:09;22.50;;;21.20;;
3050;SDS011;1535;51.098;6.414;2022-08-01T10:04:45;23.13;;;21.60;;
3050;SDS011;1535;51.098;6.414;2022-08-01T10:07:13;21.70;;;20.20;;
3050;SDS011;1535;51.098;6.414;2022-08-01T10:09:41;22.07;;;20.63;;
3050;SDS011;1535;51.098;6.414;2022-08-01T10:12:10;22.90;;;21.40;;
3050;SDS011;1535;51.098;6.414;2022-08-01T10:14:38;21.37;;;20.03;;
3050;SDS011;1535;51.098;6.414;2022-08-01T10:17:07;21.20;;;19.87;;
3050;SDS011;1535;51.098;6.414;2022-08-01T10:19:38;21.60;;;20.27;;
3050;SDS011;1535;51.098;6.414;2022-08-01T10:22:08;20.80;;;19.60;;
3050;SDS011;1535;51.098;6.414;2022-08-01T10:24:36;22.57;;;20.87;;
3050;SDS011;1535;51.098;6.414;2022-08-01T10:27:05;22.27;;;20.97;;
3050;SDS011;1535;51.098;6.414;2022-08-01T10:29:35;22.90;;;21.50;;
3050;SDS011;1535;51.098;6.414;2022-08-01T10:32:04;22.20;;;20.70;;
3050;SDS011;1535;51.098;6.414;2022-08-01T10:34:35;21.17;;;20.00;;
3050;SDS011;1535;51.098;6.414;2022-08-01T10:37:03;19.40;;;18.23;;
3050;SDS011;1535;51.098;6.414;2022-08-01T10:39:31;20.43;;;19.33;;
3050;SDS011;1535;51.098;6.414;2022-08-01T10:42:00;19.90;;;18.80;;
3050;SDS011;1535;51.098;6.414;2022-08-01T10:44:27;19.13;;;18.00;;
3050;SDS011;1535;51.098;6.414;2022-08-01T10:46:57;19.37;;;18.37;;
3050;SDS011;1535;51.098;6.414;2022-08-01T10:49:29;20.20;;;18.77;;
3050;SDS011;1535;51.098;6.414;2022-08-01T10:52:00;19.93;;;18.70;;
3050;SDS011;1535;51.098;6.414;2022-08-01T10:54:27;20.43;;;19.13;;
3050;SDS011;1535;51.098;6.414;2022-08-01T10:56:53;20.70;;;19.27;;
3050;SDS011;1535;51.098;6.414;2022-08-01T10:59:26;21.00;;;19.80;;
3050;SDS011;1535;51.098;6.414;2022-08-01T11:01:57;19.03;;;17.83;;
3050;SDS011;1535;51.098;6.414;2022-08-01T11:04:37;19.00;;;17.90;;
3050;SDS011;1535;51.098;6.414;2022-08-01T11:07:13;19.20;;;18.00;;
3050;SDS011;1535;51.098;6.414;2022-08-01T11:09:45;18.47;;;17.30;;
3050;SDS011;1535;51.098;6.414;2022-08-01T11:12:13;18.93;;;17.83;;
3050;SDS011;1535;51.098;6.414;2022-08-01T11:17:51;18.23;;;17.23;;
3050;SDS011;1535;51.098;6.414;2022-08-01T11:20:19;18.97;;;17.87;;
3050;SDS011;1535;51.098;6.414;2022-08-01T11:28:38;16.97;;;15.93;;
3050;SDS011;1535;51.098;6.414;2022-08-01T11:31:25;16.73;;;15.90;;
3050;SDS011;1535;51.098;6.414;2022-08-01T11:33:53;17.50;;;16.60;;
3050;SDS011;1535;51.098;6.414;2022-08-01T11:36:20;17.17;;;16.23;;
3050;SDS011;1535;51.098;6.414;2022-08-01T11:38:49;17.70;;;16.80;;
3050;SDS011;1535;51.098;6.414;2022-08-01T11:41:31;16.60;;;15.70;;
3050;SDS011;1535;51.098;6.414;2022-08-01T11:44:01;16.00;;;15.20;;
3050;SDS011;1535;51.098;6.414;2022-08-01T11:46:46;17.20;;;16.20;;
3050;SDS011;1535;51.098;6.414;2022-08-01T11:49:31;16.80;;;16.00;;
3050;SDS011;1535;51.098;6.414;2022-08-01T11:52:13;16.77;;;15.97;;
3050;SDS011;1535;51.098;6.414;2022-08-01T11:54:43;16.93;;;16.03;;
3050;SDS011;1535;51.098;6.414;2022-08-01T11:57:11;16.40;;;15.63;;
3050;SDS011;1535;51.098;6.414;2022-08-01T11:59:40;16.67;;;15.67;;
3050;SDS011;1535;51.098;6.414;2022-08-01T12:02:21;16.30;;;15.60;;
3050;SDS011;1535;51.098;6.414;2022-08-01T12:04:51;16.10;;;15.27;;
3050;SDS011;1535;51.098;6.414;2022-08-01T12:07:20;16.20;;;15.43;;
3050;SDS011;1535;51.098;6.414;2022-08-01T12:09:56;16.17;;;15.37;;
3050;SDS011;1535;51.098;6.414;2022-08-01T12:12:26;16.20;;;15.40;;
3050;SDS011;1535;51.098;6.414;2022-08-01T12:14:54;16.17;;;15.47;;
3050;SDS011;1535;51.098;6.414;2022-08-01T12:17:29;15.83;;;15.13;;
3050;SDS011;1535;51.098;6.414;2022-08-01T12:19:57;15.83;;;15.13;;
3050;SDS011;1535;51.098;6.414;2022-08-01T12:22:25;16.20;;;15.50;;
3050;SDS011;1535;51.098;6.414;2022-08-01T12:24:53;17.10;;;16.30;;
3050;SDS011;1535;51.098;6.414;2022-08-01T12:27:24;16.93;;;16.13;;
3050;SDS011;1535;51.098;6.414;2022-08-01T12:29:52;17.10;;;15.93;;
3050;SDS011;1535;51.098;6.414;2022-08-01T12:32:24;16.53;;;15.73;;
3050;SDS011;1535;51.098;6.414;2022-08-01T12:34:53;16.77;;;15.97;;
3050;SDS011;1535;51.098;6.414;2022-08-01T12:37:21;17.23;;;16.40;;
3050;SDS011;1535;51.098;6.414;2022-08-01T12:39:50;17.00;;;16.20;;
3050;SDS011;1535;51.098;6.414;2022-08-01T12:42:18;16.97;;;16.17;;
3050;SDS011;1535;51.098;6.414;2022-08-01T12:44:48;17.43;;;16.63;;
3050;SDS011;1535;51.098;6.414;2022-08-01T12:47:16;16.50;;;15.70;;
3050;SDS011;1535;51.098;6.414;2022-08-01T12:49:44;16.53;;;15.63;;
3050;SDS011;1535;51.098;6.414;2022-08-01T12:52:13;16.03;;;15.33;;
3050;SDS011;1535;51.098;6.414;2022-08-01T12:55:01;16.17;;;15.27;;
3050;SDS011;1535;51.098;6.414;2022-08-01T12:57:32;17.30;;;16.40;;
3050;SDS011;1535;51.098;6.414;2022-08-01T13:00:06;16.60;;;15.80;;
3050;SDS011;1535;51.098;6.414;2022-08-01T13:02:38;16.07;;;15.37;;
3050;SDS011;1535;51.098;6.414;2022-08-01T13:05:06;15.80;;;15.10;;
3050;SDS011;1535;51.098;6.414;2022-08-01T13:07:35;15.20;;;14.50;;
3050;SDS011;1535;51.098;6.414;2022-08-01T13:10:02;15.87;;;15.17;;
3050;SDS011;1535;51.098;6.414;2022-08-01T13:12:32;16.50;;;15.70;;
3050;SDS011;1535;51.098;6.414;2022-08-01T13:15:14;16.70;;;15.90;;
3050;SDS011;1535;51.098;6.414;2022-08-01T13:17:42;16.00;;;15.13;;
3050;SDS011;1535;51.098;6.414;2022-08-01T13:20:09;15.40;;;14.70;;
3050;SDS011;1535;51.098;6.414;2022-08-01T13:22:46;16.07;;;14.93;;
3050;SDS011;1535;51.098;6.414;2022-08-01T13:25:14;15.87;;;15.17;;
3050;SDS011;1535;51.098;6.414;2022-08-01T13:27:43;15.90;;;15.20;;
3050;SDS011;1535;51.098;6.414;2022-08-01T13:30:10;15.93;;;15.23;;
3050;SDS011;1535;51.098;6.414;2022-08-01T13:32:38;15.23;;;14.53;;
3050;SDS011;1535;51.098;6.414;2022-08-01T13:35:08;16.27;;;15.57;;
3050;SDS011;1535;51.098;6.414;2022-08-01T13:37:37;16.13;;;15.33;;
3050;SDS011;1535;51.098;6.414;2022-08-01T13:40:05;15.60;;;14.60;;
3050;SDS011;1535;51.098;6.414;2022-08-01T13:42:35;16.50;;;15.40;;
3050;SDS011;1535;51.098;6.414;2022-08-01T13:45:06;15.77;;;14.90;;
3050;SDS011;1535;51.098;6.414;2022-08-01T13:47:35;16.30;;;15.50;;
3050;SDS011;1535;51.098;6.414;2022-08-01T13:50:03;15.77;;;15.07;;
3050;SDS011;1535;51.098;6.414;2022-08-01T13:52:31;15.90;;;15.10;;
3050;SDS011;1535;51.098;6.414;2022-08-01T13:54:58;15.50;;;14.80;;
3050;SDS011;1535;51.098;6.414;2022-08-01T13:57:24;15.87;;;15.07;;
3050;SDS011;1535;51.098;6.414;2022-08-01T13:59:51;15.70;;;15.00;;
3050;SDS011;1535;51.098;6.414;2022-08-01T14:02:20;16.00;;;15.20;;
3050;SDS011;1535;51.098;6.414;2022-08-01T14:04:47;15.60;;;14.70;;
3050;SDS011;1535;51.098;6.414;2022-08-01T14:07:13;16.07;;;15.00;;
3050;SDS011;1535;51.098;6.414;2022-08-01T14:09:40;15.77;;;15.07;;
3050;SDS011;1535;51.098;6.414;2022-08-01T14:12:07;15.87;;;15.17;;
3050;SDS011;1535;51.098;6.414;2022-08-01T14:14:34;15.67;;;14.93;;
3050;SDS011;1535;51.098;6.414;2022-08-01T14:17:03;15.23;;;14.33;;
3050;SDS011;1535;51.098;6.414;2022-08-01T14:19:31;16.60;;;15.67;;
3050;SDS011;1535;51.098;6.414;2022-08-01T14:21:58;16.00;;;15.13;;
3050;SDS011;1535;51.098;6.414;2022-08-01T14:24:24;15.70;;;14.90;;
3050;SDS011;1535;51.098;6.414;2022-08-01T14:26:52;15.47;;;14.67;;
3050;SDS011;1535;51.098;6.414;2022-08-01T14:29:18;15.70;;;14.93;;
3050;SDS011;1535;51.098;6.414;2022-08-01T14:31:45;15.83;;;15.10;;
3050;SDS011;1535;51.098;6.414;2022-08-01T14:34:12;15.87;;;14.87;;
3050;SDS011;1535;51.098;6.414;2022-08-01T14:36:40;15.50;;;14.70;;
3050;SDS011;1535;51.098;6.414;2022-08-01T14:39:07;15.63;;;14.67;;
3050;SDS011;1535;51.098;6.414;2022-08-01T14:41:34;16.27;;;15.10;;
3050;SDS011;1535;51.098;6.414;2022-08-01T14:44:02;15.60;;;14.80;;
3050;SDS011;1535;51.098;6.414;2022-08-01T14:46:29;15.40;;;14.70;;
3050;SDS011;1535;51.098;6.414;2022-08-01T14:48:56;15.20;;;14.50;;
3050;SDS011;1535;51.098;6.414;2022-08-01T14:51:23;15.10;;;14.40;;
3050;SDS011;1535;51.098;6.414;2022-08-01T14:53:52;15.80;;;15.00;;
3050;SDS011;1535;51.098;6.414;2022-08-01T14:56:19;15.57;;;14.70;;
3050;SDS011;1535;51.098;6.414;2022-08-01T14:58:46;15.43;;;14.63;;
3050;SDS011;1535;51.098;6.414;2022-08-01T15:01:13;16.10;;;15.30;;
3050;SDS011;1535;51.098;6.414;2022-08-01T15:03:40;16.27;;;15.47;;
3050;SDS011;1535;51.098;6.414;2022-08-01T15:06:07;16.03;;;15.23;;
3050;SDS011;1535;51.098;6.414;2022-08-01T15:08:36;15.40;;;14.70;;
3050;SDS011;1535;51.098;6.414;2022-08-01T15:11:04;15.50;;;14.70;;
3050;SDS011;1535;51.098;6.414;2022-08-01T15:13:33;16.10;;;15.20;;